createdAt,value
2019-01-05T00:01:04.662Z," 6.75"
2019-01-05T00:06:00.430Z," 6.74"
2019-01-05T00:10:56.272Z," 6.74"
2019-01-05T00:15:52.993Z," 6.67"
2019-01-05T00:20:49.487Z," 6.74"
2019-01-05T00:25:44.880Z," 6.72"
2019-01-05T00:30:40.618Z," 6.64"
2019-01-05T00:35:36.457Z," 6.67"
2019-01-05T00:40:32.115Z," 6.72"
2019-01-05T00:45:27.871Z," 6.75"
2019-01-05T00:50:24.505Z," 6.70"
2019-01-05T00:55:20.230Z," 6.81"
2019-01-05T01:00:17.126Z," 6.77"
2019-01-05T01:05:12.388Z," 6.72"
2019-01-05T01:10:09.473Z," 6.85"
2019-01-05T01:15:04.968Z," 6.75"
2019-01-05T01:20:01.579Z," 6.84"
2019-01-05T01:24:57.414Z," 6.84"
2019-01-05T01:29:54.227Z," 6.84"
2019-01-05T01:34:49.655Z," 6.82"
2019-01-05T01:39:45.184Z," 6.78"
2019-01-05T01:44:41.390Z," 6.82"
2019-01-05T01:49:37.691Z," 6.89"
2019-01-05T01:54:33.831Z," 7.03"
2019-01-05T01:59:29.457Z," 7.02"
2019-01-05T02:04:25.214Z," 6.99"
2019-01-05T02:09:21.062Z," 6.95"
2019-01-05T02:14:16.983Z," 6.97"
2019-01-05T02:19:12.772Z," 6.99"
2019-01-05T02:24:09.597Z," 6.99"
2019-01-05T02:29:05.087Z," 7.00"
2019-01-05T02:34:00.910Z," 7.03"
2019-01-05T02:38:57.678Z," 7.03"
2019-01-05T02:43:53.181Z," 7.13"
2019-01-05T02:48:49.920Z," 7.07"
2019-01-05T02:53:46.506Z," 7.00"
2019-01-05T02:58:42.011Z," 7.02"
2019-01-05T03:03:37.582Z," 7.06"
2019-01-05T03:08:34.641Z," 7.14"
2019-01-05T03:13:30.344Z," 7.10"
2019-01-05T03:18:25.991Z," 7.06"
2019-01-05T03:23:21.873Z," 7.15"
2019-01-05T03:28:17.741Z," 7.15"
2019-01-05T03:33:13.510Z," 7.24"
2019-01-05T03:38:09.353Z," 7.14"
2019-01-05T03:43:05.891Z," 7.18"
2019-01-05T03:48:01.634Z," 7.18"
2019-01-05T03:52:57.760Z," 7.36"
2019-01-05T03:57:53.486Z," 7.31"
2019-01-05T04:02:50.247Z," 7.38"
2019-01-05T04:07:45.670Z," 7.38"
2019-01-05T04:12:42.483Z," 7.56"
2019-01-05T04:17:37.995Z," 7.53"
2019-01-05T04:22:33.837Z," 7.53"
2019-01-05T04:27:29.665Z," 7.61"
2019-01-05T04:32:26.351Z," 7.67"
2019-01-05T04:37:22.737Z," 7.73"
2019-01-05T04:42:19.714Z," 7.82"
2019-01-05T04:47:15.240Z," 7.76"
2019-01-05T04:52:10.873Z," 7.82"
2019-01-05T04:57:07.074Z," 7.80"
2019-01-05T05:02:02.589Z," 7.80"
2019-01-05T05:06:58.551Z," 7.82"
2019-01-05T05:11:54.306Z," 7.83"
2019-01-05T05:16:50.074Z," 7.88"
2019-01-05T05:21:46.199Z," 7.83"
2019-01-05T05:26:42.613Z," 7.88"
2019-01-05T05:31:39.238Z," 7.87"
2019-01-05T05:36:34.568Z," 7.85"
2019-01-05T05:41:31.901Z," 7.87"
2019-01-05T05:46:27.259Z," 7.88"
2019-01-05T05:51:24.117Z," 7.82"
2019-01-05T05:56:19.526Z," 7.83"
2019-01-05T06:01:15.159Z," 7.88"
2019-01-05T06:06:11.165Z," 7.80"
2019-01-05T06:11:06.963Z," 7.90"
2019-01-05T06:16:02.556Z," 7.91"
2019-01-05T06:20:58.609Z," 7.85"
2019-01-05T06:25:55.265Z," 7.82"
2019-01-05T06:30:51.650Z," 7.95"
2019-01-05T06:35:48.980Z," 7.91"
2019-01-05T06:40:44.674Z," 7.91"
2019-01-05T06:45:40.951Z," 7.90"
2019-01-05T06:50:36.660Z," 7.93"
2019-01-05T06:55:33.201Z," 7.82"
2019-01-05T07:00:28.363Z," 7.94"
2019-01-05T07:05:24.237Z," 7.88"
2019-01-05T07:10:19.883Z," 7.85"
2019-01-05T07:15:15.468Z," 7.85"
2019-01-05T07:20:11.892Z," 7.93"
2019-01-05T07:25:07.469Z," 7.91"
2019-01-05T07:30:04.199Z," 7.87"
2019-01-05T07:34:59.732Z," 7.83"
2019-01-05T07:39:55.520Z," 7.87"
2019-01-05T07:44:52.330Z," 7.93"
2019-01-05T07:49:47.633Z," 8.00"
2019-01-05T07:54:43.457Z," 8.01"
2019-01-05T07:59:39.160Z," 7.87"
2019-01-05T08:04:34.806Z," 7.93"
2019-01-05T08:09:31.453Z," 7.94"
2019-01-05T08:14:28.282Z," 7.95"
2019-01-05T08:19:24.063Z," 8.00"
2019-01-05T08:24:20.611Z," 7.97"
2019-01-05T08:29:16.154Z," 8.09"
2019-01-05T08:34:12.148Z," 7.95"
2019-01-05T08:39:08.076Z," 8.01"
2019-01-05T08:44:03.718Z," 8.13"
2019-01-05T08:48:59.796Z," 8.10"
2019-01-05T08:53:55.661Z," 8.12"
2019-01-05T08:58:51.954Z," 8.13"
2019-01-05T09:03:48.028Z," 8.12"
2019-01-05T09:08:45.547Z," 8.13"
2019-01-05T09:13:41.053Z," 8.12"
2019-01-05T09:18:37.952Z," 8.08"
2019-01-05T09:23:33.611Z," 8.09"
2019-01-05T09:28:29.371Z," 8.08"
2019-01-05T09:33:24.722Z," 8.12"
2019-01-05T09:38:20.500Z," 8.08"
2019-01-05T09:43:16.271Z," 8.10"
2019-01-05T09:48:12.246Z," 8.09"
2019-01-05T09:53:09.467Z," 8.08"
2019-01-05T09:58:05.018Z," 8.12"
2019-01-05T10:03:02.016Z," 8.01"
2019-01-05T10:07:58.157Z," 8.09"
2019-01-05T10:12:54.058Z," 8.10"
2019-01-05T10:17:50.817Z," 8.16"
2019-01-05T10:22:47.544Z," 8.19"
2019-01-05T10:27:43.064Z," 8.12"
2019-01-05T10:32:38.998Z," 8.10"
2019-01-05T10:37:34.572Z," 8.18"
2019-01-05T10:42:30.344Z," 8.16"
2019-01-05T10:47:26.213Z," 8.26"
2019-01-05T10:52:22.164Z," 8.18"
2019-01-05T10:57:17.971Z," 8.16"
2019-01-05T11:02:14.580Z," 8.28"
2019-01-05T11:07:10.476Z," 8.15"
2019-01-05T11:12:06.869Z," 8.18"
2019-01-05T11:17:02.488Z," 8.18"
2019-01-05T11:21:58.403Z," 8.28"
2019-01-05T11:26:54.303Z," 8.26"
2019-01-05T11:31:51.024Z," 8.24"
2019-01-05T11:36:47.412Z," 8.24"
2019-01-05T11:41:43.082Z," 8.23"
2019-01-05T11:46:38.765Z," 8.18"
2019-01-05T11:51:34.142Z," 8.26"
2019-01-05T11:56:30.706Z," 8.33"
2019-01-05T12:01:27.182Z," 8.31"
2019-01-05T12:06:23.675Z," 8.31"
2019-01-05T12:11:19.558Z," 8.30"
2019-01-05T12:16:15.550Z," 8.28"
2019-01-05T12:21:12.395Z," 8.28"
2019-01-05T12:26:08.762Z," 8.30"
2019-01-05T12:31:04.344Z," 8.34"
2019-01-05T12:36:00.992Z," 8.27"
2019-01-05T12:40:56.618Z," 8.34"
2019-01-05T12:45:52.752Z," 8.30"
2019-01-05T12:50:48.194Z," 8.28"
2019-01-05T12:55:44.240Z," 8.34"
2019-01-05T13:00:39.960Z," 8.34"
2019-01-05T13:05:36.625Z," 8.28"
2019-01-05T13:10:32.251Z," 8.34"
2019-01-05T13:15:28.368Z," 8.30"
2019-01-05T13:20:24.047Z," 8.34"
2019-01-05T13:25:19.813Z," 8.28"
2019-01-05T13:30:16.714Z," 8.28"
2019-01-05T13:35:13.647Z," 8.28"
2019-01-05T13:40:09.727Z," 8.31"
2019-01-05T13:45:05.527Z," 8.26"
2019-01-05T13:50:01.238Z," 8.31"
2019-01-05T13:54:58.968Z," 8.26"
2019-01-05T13:59:55.474Z," 8.28"
2019-01-05T14:04:50.601Z," 8.34"
2019-01-05T14:09:46.760Z," 8.38"
2019-01-05T14:14:42.626Z," 8.33"
2019-01-05T14:19:39.238Z," 8.34"
2019-01-05T14:24:34.591Z," 8.33"
2019-01-05T14:29:30.160Z," 8.34"
2019-01-05T14:34:26.955Z," 8.31"
2019-01-05T14:39:23.478Z," 8.24"
2019-01-05T14:44:18.675Z," 8.27"
2019-01-05T14:49:14.655Z," 8.26"
2019-01-05T14:54:10.275Z," 8.30"
2019-01-05T14:59:06.168Z," 8.33"
2019-01-05T15:04:01.853Z," 8.30"
2019-01-05T15:08:57.588Z," 8.26"
2019-01-05T15:13:54.455Z," 8.30"
2019-01-05T15:18:49.941Z," 8.24"
2019-01-05T15:23:45.760Z," 8.24"
2019-01-05T15:28:41.309Z," 8.31"
2019-01-05T15:33:37.002Z," 8.23"
2019-01-05T15:38:32.791Z," 8.18"
2019-01-05T15:43:28.483Z," 8.18"
2019-01-05T15:48:25.604Z," 8.23"
2019-01-05T15:53:20.989Z," 8.12"
2019-01-05T15:58:16.615Z," 8.20"
2019-01-05T16:03:12.351Z," 8.10"
2019-01-05T16:08:08.078Z," 8.08"
2019-01-05T16:13:03.726Z," 8.05"
2019-01-05T16:18:00.842Z," 8.10"
2019-01-05T16:22:56.304Z," 8.01"
2019-01-05T16:27:51.738Z," 8.09"
2019-01-05T16:32:48.332Z," 8.09"
2019-01-05T16:37:43.789Z," 8.01"
2019-01-05T16:42:39.892Z," 8.06"
2019-01-05T16:47:36.485Z," 8.01"
2019-01-05T16:52:32.083Z," 8.06"
2019-01-05T16:57:27.284Z," 8.09"
2019-01-05T17:02:23.974Z," 7.98"
2019-01-05T17:07:20.502Z," 8.09"
2019-01-05T17:12:15.985Z," 8.13"
2019-01-05T17:17:12.419Z," 8.00"
2019-01-05T17:22:08.963Z," 8.00"
2019-01-05T17:27:04.478Z," 8.10"
2019-01-05T17:32:00.296Z," 7.98"
2019-01-05T17:36:56.626Z," 8.06"
2019-01-05T17:41:52.155Z," 8.08"
2019-01-05T17:46:48.056Z," 7.97"
2019-01-05T17:51:47.366Z," 7.98"
2019-01-05T17:56:42.119Z," 8.06"
2019-01-05T18:01:37.898Z," 8.12"
2019-01-05T18:06:33.651Z," 8.19"
2019-01-05T18:11:29.977Z," 8.06"
2019-01-05T18:16:26.713Z," 8.00"
2019-01-05T18:21:22.939Z," 8.09"
2019-01-05T18:26:18.800Z," 8.00"
2019-01-05T18:31:14.624Z," 7.95"
2019-01-05T18:36:10.258Z," 7.94"
2019-01-05T18:41:06.050Z," 8.03"
2019-01-05T18:46:01.536Z," 7.97"
2019-01-05T18:50:57.302Z," 7.98"
2019-01-05T18:55:53.014Z," 7.97"
2019-01-05T19:00:48.760Z," 7.94"
2019-01-05T19:05:44.432Z," 7.88"
2019-01-05T19:10:41.291Z," 7.97"
2019-01-05T19:15:36.711Z," 7.91"
2019-01-05T19:20:32.454Z," 7.98"
2019-01-05T19:25:28.323Z," 7.95"
2019-01-05T19:30:24.034Z," 7.98"
2019-01-05T19:35:20.570Z," 7.93"
2019-01-05T19:40:17.306Z," 7.87"
2019-01-05T19:45:13.521Z," 7.97"
2019-01-05T19:50:10.153Z," 8.00"
2019-01-05T19:55:05.370Z," 7.93"
2019-01-05T20:00:01.780Z," 7.95"
2019-01-05T20:04:57.815Z," 8.03"
2019-01-05T20:09:53.586Z," 7.95"
2019-01-05T20:14:50.625Z," 7.97"
2019-01-05T20:19:46.080Z," 7.90"
2019-01-05T20:24:41.886Z," 7.97"
2019-01-05T20:29:38.450Z," 8.01"
2019-01-05T20:34:33.924Z," 7.95"
2019-01-05T20:39:31.210Z," 7.97"
2019-01-05T20:44:26.737Z," 7.90"
2019-01-05T20:49:22.405Z," 7.94"
2019-01-05T20:54:19.083Z," 7.95"
2019-01-05T20:59:14.871Z," 7.90"
2019-01-05T21:04:10.229Z," 7.93"
2019-01-05T21:09:06.050Z," 8.00"
2019-01-05T21:14:02.225Z," 7.97"
2019-01-05T21:18:58.820Z," 8.00"
2019-01-05T21:23:54.229Z," 7.91"
2019-01-05T21:28:50.287Z," 7.98"
2019-01-05T21:33:46.022Z," 7.85"
2019-01-05T21:38:42.767Z," 7.90"
2019-01-05T21:43:38.819Z," 7.88"
2019-01-05T21:48:34.566Z," 7.87"
2019-01-05T21:53:30.540Z," 7.91"
2019-01-05T21:58:26.440Z," 7.82"
2019-01-05T22:03:22.776Z," 7.88"
2019-01-05T22:08:19.228Z," 7.88"
2019-01-05T22:13:15.711Z," 7.76"
2019-01-05T22:18:11.509Z," 7.77"
2019-01-05T22:23:07.245Z," 7.80"
2019-01-05T22:28:02.960Z," 7.83"
2019-01-05T22:32:59.242Z," 7.82"
2019-01-05T22:37:54.741Z," 7.80"
2019-01-05T22:42:51.541Z," 7.66"
2019-01-05T22:47:47.146Z," 7.72"
2019-01-05T22:52:42.569Z," 7.75"
2019-01-05T22:57:38.018Z," 7.73"
2019-01-05T23:02:34.039Z," 7.67"
2019-01-05T23:07:30.722Z," 7.67"
2019-01-05T23:12:27.192Z," 7.67"
2019-01-05T23:17:22.492Z," 7.60"
2019-01-05T23:22:18.284Z," 7.66"
2019-01-05T23:27:15.123Z," 7.61"
2019-01-05T23:32:10.419Z," 7.67"
2019-01-05T23:37:07.195Z," 7.58"
2019-01-05T23:42:02.594Z," 7.70"
2019-01-05T23:46:59.227Z," 7.60"
2019-01-05T23:51:55.558Z," 7.57"
2019-01-05T23:56:50.924Z," 7.58"
